Time;durP1;ratioP1;P1;durP2;ratioP2;P2;SDS_P1;SDS_P2;PMS_P1;PMS_P2;Temp;Humidity;BMP_temperature;BMP_pressure;BME280_temperature;BME280_humidity;BME280_pressure;Samples;Min_cycle;Max_cycle;Signal;HPM_P1;HPM_P2
2022/05/18 00:09:12;;;;;;;12.95;6.90;;;16.70;99.90;;;;;;6246044;22;20024;-92
2022/05/18 00:11:38;;;;;;;11.88;6.68;;;16.60;99.90;;;;;;6221190;23;20024;-92
2022/05/18 00:14:29;;;;;;;16.13;8.82;;;16.70;99.90;;;;;;6212520;23;20084;-90
2022/05/18 00:16:55;;;;;;;12.48;7.88;;;16.60;99.90;;;;;;6192163;23;20004;-94
2022/05/18 00:19:46;;;;;;;14.07;8.13;;;16.60;99.90;;;;;;6242416;23;20044;-88
2022/05/18 02:16:22;;;;;;;8.68;5.10;;;15.50;99.90;;;;;;6205564;23;20054;-88
2022/05/18 02:18:47;;;;;;;10.13;5.97;;;15.50;99.90;;;;;;6218814;23;20078;-86
2022/05/18 02:21:13;;;;;;;9.10;5.40;;;15.40;99.90;;;;;;6218649;23;20024;-88
2022/05/18 02:23:40;;;;;;;10.20;5.35;;;15.40;99.90;;;;;;6219016;23;20255;-88
2022/05/18 02:26:12;;;;;;;8.70;5.15;;;15.40;99.90;;;;;;6194089;23;20043;-89
2022/05/18 02:28:38;;;;;;;8.40;5.10;;;15.40;99.90;;;;;;6219170;23;20124;-86
2022/05/18 02:37:05;;;;;;;10.90;5.78;;;15.30;99.90;;;;;;6223545;22;20024;-89
2022/05/18 02:42:35;;;;;;;9.43;5.25;;;15.30;99.90;;;;;;6214255;22;20028;-91
2022/05/18 02:53:19;;;;;;;8.93;5.10;;;15.20;99.90;;;;;;6214810;23;20342;-91
2022/05/18 02:58:30;;;;;;;9.07;4.60;;;15.30;99.90;;;;;;6190430;23;20021;-87
2022/05/18 03:00:56;;;;;;;7.22;4.35;;;15.40;99.90;;;;;;6190326;23;20375;-88
2022/05/18 03:03:22;;;;;;;7.53;4.35;;;15.30;99.90;;;;;;6190188;23;20013;-88
2022/05/18 03:05:47;;;;;;;8.18;3.90;;;15.40;99.90;;;;;;6216917;23;20055;-88
2022/05/18 03:08:13;;;;;;;7.47;3.65;;;15.30;99.90;;;;;;6190269;23;20504;-87
2022/05/18 03:10:39;;;;;;;6.95;3.25;;;15.30;99.90;;;;;;6216918;23;20012;-87
2022/05/18 03:13:04;;;;;;;6.03;3.47;;;15.30;99.90;;;;;;6215179;23;20063;-87
2022/05/18 03:15:30;;;;;;;7.23;3.33;;;15.30;99.90;;;;;;6215127;23;20301;-89
2022/05/18 03:17:56;;;;;;;6.00;3.50;;;15.30;99.90;;;;;;6215495;23;20139;-90
2022/05/18 03:25:41;;;;;;;6.18;3.05;;;15.30;99.90;;;;;;6215495;23;20028;-94
2022/05/18 03:28:07;;;;;;;5.65;2.58;;;15.30;99.90;;;;;;6190464;23;20016;-91
2022/05/18 03:30:33;;;;;;;7.00;3.50;;;15.30;99.90;;;;;;6166246;23;20009;-93
2022/05/18 03:32:58;;;;;;;4.72;2.67;;;15.30;99.90;;;;;;6184328;23;20024;-94
2022/05/18 03:35:24;;;;;;;6.68;3.13;;;15.30;99.90;;;;;;6190949;23;20043;-93
2022/05/18 03:42:12;;;;;;;5.30;2.92;;;15.30;99.90;;;;;;6230545;23;20055;-94
2022/05/18 03:44:41;;;;;;;5.32;2.53;;;15.30;99.90;;;;;;6165010;23;20070;-87
2022/05/18 03:47:07;;;;;;;6.13;3.03;;;15.30;99.90;;;;;;6214865;23;20028;-87
2022/05/18 03:49:33;;;;;;;7.55;3.10;;;15.30;99.90;;;;;;6189660;23;20024;-86
2022/05/18 03:51:58;;;;;;;6.03;3.23;;;15.30;99.90;;;;;;6189517;23;20377;-87
2022/05/18 03:54:24;;;;;;;5.68;3.03;;;15.30;99.90;;;;;;6216362;23;20243;-87
2022/05/18 03:56:50;;;;;;;5.43;2.88;;;15.30;99.90;;;;;;6189809;23;20012;-87
2022/05/18 03:59:16;;;;;;;7.00;2.90;;;15.30;99.90;;;;;;6189660;23;20020;-87
2022/05/18 04:01:41;;;;;;;7.22;3.10;;;15.20;99.90;;;;;;6216244;23;20545;-87
2022/05/18 04:04:07;;;;;;;5.37;2.87;;;15.30;99.90;;;;;;6216215;23;20013;-87
2022/05/18 04:06:33;;;;;;;6.20;3.30;;;15.20;99.90;;;;;;6189359;23;20016;-87
2022/05/18 04:08:59;;;;;;;5.55;3.10;;;15.30;99.90;;;;;;6216020;23;20020;-88
2022/05/18 04:11:24;;;;;;;6.00;3.20;;;15.30;99.90;;;;;;6216058;23;20088;-87
2022/05/18 04:47:56;;;;;;;6.13;3.13;;;15.60;99.90;;;;;;6214823;23;20024;-92
2022/05/18 04:50:30;;;;;;;6.32;3.45;;;15.70;99.90;;;;;;6164917;23;20460;-94
2022/05/18 04:53:15;;;;;;;6.07;3.25;;;15.80;99.90;;;;;;6189407;23;20031;-94
2022/05/18 05:01:03;;;;;;;5.63;3.15;;;16.00;99.90;;;;;;6275926;22;20356;-94
2022/05/18 05:03:29;;;;;;;6.22;3.42;;;16.10;99.90;;;;;;6224904;22;20019;-92
2022/05/18 05:16:16;;;;;;;6.88;3.20;;;16.50;99.90;;;;;;6274735;22;20448;-95
2022/05/18 05:18:47;;;;;;;5.60;3.20;;;16.60;99.90;;;;;;6224640;22;20019;-93
2022/05/18 05:34:13;;;;;;;6.47;3.35;;;17.00;99.90;;;;;;6306683;22;20020;-93
2022/05/18 05:36:38;;;;;;;;;;;17.00;99.90;;;;;;6257191;22;20288;-92
2022/05/18 05:39:10;;;;;;;7.97;3.30;;;17.10;99.90;;;;;;6276696;22;19911;-93
2022/05/18 05:41:37;;;;;;;5.75;3.22;;;17.30;99.90;;;;;;6273000;22;20026;-93
2022/05/18 05:49:59;;;;;;;6.00;3.55;;;17.70;99.90;;;;;;6306935;22;20019;-89
2022/05/18 05:52:25;;;;;;;6.45;3.50;;;18.00;99.90;;;;;;6255349;22;20015;-92
2022/05/18 05:54:51;;;;;;;6.93;3.38;;;18.20;99.90;;;;;;6255019;22;20011;-94
2022/05/18 05:57:17;;;;;;;6.82;3.17;;;18.30;99.90;;;;;;6255130;22;20026;-93
2022/05/18 05:59:42;;;;;;;6.63;3.90;;;18.40;99.90;;;;;;6254864;22;20094;-95
2022/05/18 06:06:14;;;;;;;6.97;3.55;;;18.60;99.90;;;;;;6308027;22;20033;-88
2022/05/18 06:08:40;;;;;;;7.47;4.07;;;18.70;99.90;;;;;;6254366;22;20042;-93
2022/05/18 06:11:08;;;;;;;6.72;3.83;;;18.70;99.90;;;;;;6255026;22;20019;-92
2022/05/18 06:13:34;;;;;;;6.05;3.50;;;18.80;99.90;;;;;;6254995;22;20007;-90
2022/05/18 06:16:01;;;;;;;6.65;3.55;;;18.80;99.90;;;;;;6256701;22;20027;-92
2022/05/18 06:18:30;;;;;;;7.43;3.80;;;18.90;99.90;;;;;;6257012;22;20094;-93
2022/05/18 06:20:57;;;;;;;6.00;3.70;;;19.10;99.90;;;;;;6256763;22;20456;-92
2022/05/18 06:23:23;;;;;;;;;;;19.30;99.90;;;;;;6257215;22;20007;-89
2022/05/18 06:25:48;;;;;;;7.30;3.47;;;19.50;99.90;;;;;;6282073;22;19982;-92
2022/05/18 06:28:14;;;;;;;7.00;3.67;;;19.70;99.90;;;;;;6256837;22;20026;-92
2022/05/18 06:30:41;;;;;;;6.68;3.45;;;19.80;99.90;;;;;;6256760;22;20011;-92
2022/05/18 06:33:23;;;;;;;6.50;3.55;;;20.10;99.90;;;;;;6256438;22;20466;-93
2022/05/18 06:35:52;;;;;;;7.10;3.40;;;20.20;99.90;;;;;;6257580;22;20391;-92
2022/05/18 06:38:19;;;;;;;6.00;3.42;;;20.30;99.90;;;;;;6256667;22;20011;-91
2022/05/18 06:43:39;;;;;;;6.57;3.78;;;20.30;99.90;;;;;;6282365;22;20075;-94
2022/05/18 06:48:41;;;;;;;5.75;3.45;;;20.90;99.90;;;;;;6231467;22;20024;-95
2022/05/18 06:51:08;;;;;;;7.50;3.50;;;21.40;99.90;;;;;;6221126;23;20016;-93
2022/05/18 06:53:34;;;;;;;6.88;3.88;;;22.00;99.90;;;;;;6220734;23;20012;-90
2022/05/18 06:56:02;;;;;;;6.82;3.88;;;22.50;99.90;;;;;;6195793;23;20345;-92
2022/05/18 06:59:03;;;;;;;6.57;3.67;;;23.10;99.90;;;;;;6220681;23;20015;-93
2022/05/18 07:01:41;;;;;;;7.18;4.35;;;23.70;99.90;;;;;;6195079;23;20074;-95
2022/05/18 07:04:10;;;;;;;6.05;3.47;;;23.80;99.90;;;;;;6196111;23;20035;-95
2022/05/18 07:11:36;;;;;;;6.65;3.40;;;23.60;99.90;;;;;;6186929;23;20272;-93
2022/05/18 07:14:05;;;;;;;6.35;3.83;;;23.90;99.90;;;;;;6136393;23;20017;-94
2022/05/18 07:16:31;;;;;;;7.20;3.70;;;24.30;99.90;;;;;;6161047;23;20013;-95
2022/05/18 07:18:57;;;;;;;6.20;3.72;;;24.50;99.90;;;;;;6161130;23;20016;-95
2022/05/18 07:21:25;;;;;;;;;;;24.60;99.90;;;;;;6136614;23;20100;-94
2022/05/18 07:23:52;;;;;;;8.00;3.60;;;24.50;99.90;;;;;;6187305;23;19916;-91
2022/05/18 07:26:19;;;;;;;8.40;4.32;;;24.40;99.90;;;;;;6135991;23;20099;-92
2022/05/18 07:33:57;;;;;;;5.97;3.83;;;23.40;99.90;;;;;;6234100;23;20031;-94
2022/05/18 07:36:23;;;;;;;7.53;3.88;;;23.10;99.90;;;;;;6195943;23;20020;-92
2022/05/18 07:38:50;;;;;;;6.50;3.97;;;22.80;99.90;;;;;;6195728;23;20054;-94
2022/05/18 07:41:16;;;;;;;6.68;4.00;;;22.60;99.90;;;;;;6195019;23;20017;-90
2022/05/18 07:43:42;;;;;;;8.30;4.32;;;22.40;99.90;;;;;;6220430;23;20319;-92
2022/05/18 07:46:10;;;;;;;7.70;4.10;;;22.30;99.90;;;;;;6220602;23;20020;-91
2022/05/18 07:48:37;;;;;;;7.85;3.80;;;22.20;99.90;;;;;;6195037;23;20039;-91
2022/05/18 07:51:03;;;;;;;6.18;3.58;;;22.20;99.90;;;;;;6223585;23;20024;-91
2022/05/18 07:53:30;;;;;;;7.05;4.15;;;22.10;99.90;;;;;;6221044;23;20023;-93
2022/05/18 07:55:56;;;;;;;7.53;4.07;;;22.00;99.90;;;;;;6198670;23;20446;-91
2022/05/18 07:58:23;;;;;;;8.52;4.03;;;22.00;99.90;;;;;;6220554;23;20031;-92
2022/05/18 08:00:49;;;;;;;8.20;4.50;;;22.00;99.90;;;;;;6220186;23;20024;-91
2022/05/18 08:03:15;;;;;;;;;;;22.00;99.90;;;;;;6220813;23;20023;-92
2022/05/18 08:05:46;;;;;;;10.63;4.70;;;22.00;99.90;;;;;;6246946;23;19911;-89
2022/05/18 08:08:15;;;;;;;6.53;3.47;;;22.00;99.90;;;;;;6195157;23;20534;-91
2022/05/18 08:16:16;;;;;;;6.85;3.50;;;22.10;99.90;;;;;;6219656;23;20000;-92
2022/05/18 08:19:26;;;;;;;6.82;3.58;;;22.20;99.90;;;;;;6194430;23;20016;-93
2022/05/18 08:30:11;;;;;;;5.13;3.00;;;22.20;99.90;;;;;;6184815;23;20083;-91
2022/05/18 08:32:36;;;;;;;5.00;2.10;;;22.30;99.90;;;;;;6135579;23;20021;-90
2022/05/18 08:35:03;;;;;;;4.70;2.03;;;22.30;99.90;;;;;;6184591;23;20016;-92
2022/05/18 08:37:29;;;;;;;5.55;1.95;;;22.30;99.90;;;;;;6135338;23;20024;-90
2022/05/18 08:39:55;;;;;;;2.65;1.25;;;22.40;99.90;;;;;;6161107;23;20013;-93
2022/05/18 08:42:20;;;;;;;3.60;1.50;;;22.40;99.90;;;;;;6135646;23;20378;-92
2022/05/18 08:44:47;;;;;;;3.55;1.73;;;22.40;99.90;;;;;;6135811;23;20059;-89
2022/05/18 08:47:36;;;;;;;4.15;1.80;;;22.50;99.90;;;;;;6161316;23;20014;-96
2022/05/18 08:50:12;;;;;;;3.63;1.50;;;22.60;99.90;;;;;;6160323;23;20088;-96
2022/05/18 08:52:58;;;;;;;2.58;1.38;;;22.60;99.90;;;;;;6171634;23;20017;-96
2022/05/18 08:55:45;;;;;;;2.85;1.40;;;22.70;99.90;;;;;;6169541;23;20017;-96
2022/05/18 08:58:23;;;;;;;3.28;1.40;;;22.70;99.90;;;;;;6164561;23;20096;-93
2022/05/18 09:00:58;;;;;;;2.88;1.30;;;22.80;99.90;;;;;;6168562;23;20031;-90
2022/05/18 09:23:34;;;;;;;;;;;;;;;;;;;;;
2022/05/18 09:26:20;;;;;;;5.28;1.10;;;23.30;99.90;;;;;;6210226;23;20099;-95
2022/05/18 09:28:51;;;;;;;2.85;1.05;;;23.40;99.90;;;;;;6190142;23;20020;-89
2022/05/18 09:31:42;;;;;;;2.47;1.10;;;23.40;99.90;;;;;;6189175;23;20016;-91
2022/05/18 09:34:19;;;;;;;2.67;1.38;;;23.40;99.90;;;;;;6164317;23;20059;-90
2022/05/18 09:37:36;;;;;;;3.33;1.25;;;23.50;99.90;;;;;;6188487;23;20327;-89
2022/05/18 09:40:57;;;;;;;1.60;0.82;;;23.50;99.40;;;;;;6145018;23;20060;-95
2022/05/18 09:45:59;;;;;;;2.63;1.17;;;23.70;99.40;;;;;;6187809;23;20035;-93
2022/05/18 11:31:46;;;;;;;6.53;3.28;;;27.20;91.30;;;;;;6184847;23;20021;-93
2022/05/18 11:34:36;;;;;;;6.45;3.05;;;27.20;90.90;;;;;;6160254;23;20096;-91
2022/05/18 11:37:09;;;;;;;7.32;4.15;;;27.30;90.70;;;;;;6134923;23;20021;-91
2022/05/18 11:54:13;;;;;;;5.10;2.50;;;27.60;90.60;;;;;;6204417;23;20021;-93
2022/05/18 12:43:26;;;;;;;8.93;4.33;;;26.90;91.00;;;;;;6189495;23;20036;-94
2022/05/18 12:46:03;;;;;;;9.60;4.72;;;26.80;91.10;;;;;;6166118;23;20029;-94
2022/05/18 12:48:32;;;;;;;7.72;4.00;;;26.70;91.20;;;;;;6195966;23;20020;-95
2022/05/18 12:51:06;;;;;;;6.43;4.10;;;26.50;91.40;;;;;;6221172;23;20046;-95
2022/05/18 12:54:07;;;;;;;7.63;4.22;;;26.40;91.60;;;;;;6195571;23;20020;-95
2022/05/18 12:56:35;;;;;;;6.95;4.00;;;26.30;91.80;;;;;;6177156;23;20098;-96
2022/05/18 12:59:06;;;;;;;6.07;3.65;;;26.20;91.90;;;;;;6195370;23;20024;-95
2022/05/18 13:01:45;;;;;;;14.75;9.82;;;26.10;92.00;;;;;;6220100;23;20020;-96
2022/05/18 13:04:33;;;;;;;15.77;10.63;;;26.00;92.60;;;;;;6195889;23;20028;-95
2022/05/18 13:07:29;;;;;;;16.33;10.45;;;25.80;93.10;;;;;;6195412;23;20024;-90
2022/05/18 13:10:14;;;;;;;16.27;10.20;;;25.40;93.90;;;;;;6188536;23;20464;-95
2022/05/18 13:12:53;;;;;;;16.95;11.43;;;25.10;94.40;;;;;;6195227;23;20020;-95
2022/05/18 13:16:16;;;;;;;17.23;10.55;;;24.90;95.00;;;;;;6195050;23;20071;-93
2022/05/18 13:18:42;;;;;;;19.50;10.65;;;24.70;95.90;;;;;;6194334;23;20090;-93
2022/05/18 13:21:07;;;;;;;20.92;11.63;;;24.60;96.20;;;;;;6219662;23;20020;-94
2022/05/18 13:23:35;;;;;;;;;;;24.50;96.50;;;;;;6194857;23;20012;-95
2022/05/18 13:26:17;;;;;;;16.42;9.40;;;24.40;97.40;;;;;;6193117;23;19919;-94
2022/05/18 13:28:46;;;;;;;16.60;10.07;;;24.30;96.90;;;;;;6219547;23;20020;-96
2022/05/18 13:31:21;;;;;;;18.15;10.18;;;24.30;96.90;;;;;;6195252;23;20020;-96
2022/05/18 13:33:54;;;;;;;16.80;10.30;;;24.20;97.00;;;;;;6219688;23;20142;-94
2022/05/18 13:36:38;;;;;;;14.80;9.48;;;24.20;97.10;;;;;;6194702;23;20477;-92
2022/05/18 13:39:36;;;;;;;17.33;9.77;;;24.20;96.90;;;;;;6219603;23;20020;-93
2022/05/18 13:42:15;;;;;;;20.45;10.60;;;24.20;97.00;;;;;;6194625;23;20020;-91
2022/05/18 13:44:42;;;;;;;15.50;9.13;;;24.20;97.20;;;;;;6194274;23;20201;-93
2022/05/18 13:47:28;;;;;;;18.23;10.38;;;24.30;97.40;;;;;;6219852;23;20047;-95
2022/05/18 13:50:00;;;;;;;15.00;10.05;;;24.40;97.30;;;;;;6194658;23;20023;-94
2022/05/18 13:52:34;;;;;;;16.10;9.18;;;24.60;97.20;;;;;;6194407;23;20020;-94
2022/05/18 13:55:04;;;;;;;14.00;9.73;;;24.70;97.00;;;;;;6194364;23;20017;-94
2022/05/18 13:57:38;;;;;;;14.02;9.13;;;24.80;96.90;;;;;;6194611;23;20096;-95
2022/05/18 14:00:08;;;;;;;14.27;8.95;;;24.80;96.40;;;;;;6219462;23;20023;-90
2022/05/18 14:02:35;;;;;;;16.00;9.05;;;24.70;96.50;;;;;;6194671;23;20016;-94
2022/05/18 14:05:13;;;;;;;16.60;9.13;;;24.60;96.70;;;;;;6219517;23;20020;-96
2022/05/18 14:07:45;;;;;;;15.57;9.48;;;24.50;96.70;;;;;;6219610;23;20016;-95
2022/05/18 14:10:14;;;;;;;13.95;9.23;;;24.50;97.00;;;;;;6194833;23;20016;-94
2022/05/18 14:12:41;;;;;;;14.93;9.63;;;24.40;97.10;;;;;;6194178;23;20021;-94
2022/05/18 14:15:07;;;;;;;17.13;9.60;;;24.40;97.30;;;;;;6194601;23;20024;-92
2022/05/18 14:17:36;;;;;;;14.52;8.98;;;24.30;97.20;;;;;;6194325;23;20012;-91
2022/05/18 14:20:15;;;;;;;15.57;8.93;;;24.20;97.20;;;;;;6194146;23;20069;-90
2022/05/18 14:22:46;;;;;;;17.67;9.63;;;24.00;97.30;;;;;;6194424;23;20017;-90
2022/05/18 14:25:15;;;;;;;15.38;9.60;;;23.90;97.50;;;;;;6194161;23;20023;-93
2022/05/18 14:27:48;;;;;;;13.75;8.30;;;23.80;97.50;;;;;;6219381;23;20028;-95
2022/05/18 14:30:24;;;;;;;12.55;8.27;;;23.70;97.70;;;;;;6245515;23;20103;-95
2022/05/18 14:32:55;;;;;;;14.63;8.48;;;23.70;97.70;;;;;;6194296;23;20016;-95
2022/05/18 14:35:24;;;;;;;13.43;8.40;;;23.70;98.10;;;;;;6194549;23;20070;-92
2022/05/18 14:37:57;;;;;;;17.02;7.95;;;23.70;98.10;;;;;;6196080;23;20027;-93
2022/05/18 14:40:28;;;;;;;16.27;8.15;;;23.80;98.20;;;;;;6221408;23;20016;-91
2022/05/18 14:42:55;;;;;;;14.30;8.10;;;23.90;98.50;;;;;;6221138;23;20343;-92
2022/05/18 14:45:23;;;;;;;16.77;8.32;;;23.90;98.60;;;;;;6196182;23;20129;-94
2022/05/18 14:47:51;;;;;;;13.68;7.70;;;23.90;98.50;;;;;;6196286;23;20020;-92
2022/05/18 14:50:40;;;;;;;14.73;7.38;;;23.80;98.30;;;;;;6196434;23;20047;-95
2022/05/18 14:53:20;;;;;;;13.15;7.65;;;23.70;98.30;;;;;;6196302;23;20012;-94
2022/05/18 14:55:54;;;;;;;11.95;7.43;;;23.70;98.60;;;;;;6196031;23;20035;-95
2022/05/18 14:58:27;;;;;;;13.75;6.85;;;23.60;98.80;;;;;;6194719;23;20027;-91
2022/05/18 15:01:02;;;;;;;11.38;6.28;;;23.60;98.80;;;;;;6218712;23;20016;-92
2022/05/18 15:03:33;;;;;;;12.30;6.47;;;23.50;98.70;;;;;;6193984;23;20012;-94
2022/05/18 15:06:00;;;;;;;11.65;6.80;;;23.40;98.60;;;;;;6195082;23;20023;-93
2022/05/18 15:09:11;;;;;;;11.40;6.22;;;23.30;98.70;;;;;;6194394;23;20016;-93
2022/05/18 15:11:49;;;;;;;10.68;6.60;;;23.20;98.60;;;;;;6193460;23;20016;-96
2022/05/18 15:14:40;;;;;;;12.60;7.07;;;23.10;98.60;;;;;;6195178;23;20073;-92
2022/05/18 15:17:23;;;;;;;13.05;7.15;;;23.00;98.70;;;;;;6220844;23;20069;-91
2022/05/18 15:20:08;;;;;;;12.93;6.28;;;22.90;98.90;;;;;;6194925;23;20016;-90
2022/05/18 15:22:44;;;;;;;11.07;7.00;;;22.80;99.00;;;;;;6244486;23;20067;-90
2022/05/18 15:25:32;;;;;;;15.00;7.32;;;22.80;99.20;;;;;;6193786;23;20023;-90
2022/05/18 15:28:07;;;;;;;12.63;6.35;;;22.70;99.10;;;;;;6246548;23;20039;-88
2022/05/18 15:30:39;;;;;;;13.55;6.35;;;22.60;99.20;;;;;;6219525;23;20099;-90
2022/05/18 15:33:50;;;;;;;14.45;7.05;;;22.60;99.40;;;;;;6245033;23;20012;-90
2022/05/18 15:36:55;;;;;;;13.25;7.18;;;22.50;99.60;;;;;;6161760;23;20012;-90
2022/05/18 15:39:31;;;;;;;10.80;6.78;;;22.40;99.60;;;;;;6223408;23;20450;-92
2022/05/18 15:42:12;;;;;;;12.60;6.85;;;22.30;99.60;;;;;;6194800;23;20027;-91
2022/05/18 15:44:38;;;;;;;12.38;6.88;;;22.30;99.80;;;;;;6191899;23;20091;-91
2022/05/18 15:47:19;;;;;;;12.27;6.32;;;22.20;99.80;;;;;;6217947;23;20024;-91
2022/05/18 15:50:00;;;;;;;13.63;6.93;;;22.10;99.90;;;;;;6195165;23;20401;-94
2022/05/18 15:52:28;;;;;;;11.30;6.70;;;22.10;99.90;;;;;;6246271;23;20024;-95
2022/05/18 15:55:00;;;;;;;11.85;6.53;;;22.00;99.90;;;;;;6195680;23;20531;-94
2022/05/18 15:57:36;;;;;;;9.57;6.25;;;21.90;99.90;;;;;;6221026;23;20012;-95
2022/05/18 16:00:05;;;;;;;12.18;6.68;;;21.80;99.90;;;;;;6195483;23;20020;-95
2022/05/18 16:02:31;;;;;;;10.77;5.68;;;21.70;99.90;;;;;;6195334;23;20020;-95
2022/05/18 16:05:00;;;;;;;8.55;5.35;;;21.60;99.90;;;;;;6195582;23;20012;-92
2022/05/18 16:07:26;;;;;;;10.20;5.78;;;21.60;99.90;;;;;;6195440;23;20020;-95
2022/05/18 16:09:52;;;;;;;10.50;5.90;;;21.50;99.90;;;;;;6195482;23;20020;-92
2022/05/18 16:12:19;;;;;;;12.90;6.30;;;21.50;99.90;;;;;;6195568;23;20082;-95
2022/05/18 16:14:45;;;;;;;10.07;5.80;;;21.50;99.90;;;;;;6219961;23;20524;-93
2022/05/18 16:17:11;;;;;;;11.23;7.13;;;21.50;99.90;;;;;;6194704;23;20020;-96
2022/05/18 16:19:37;;;;;;;10.13;5.50;;;21.50;99.90;;;;;;6195413;23;20023;-96
2022/05/18 16:22:05;;;;;;;11.77;6.50;;;21.40;99.90;;;;;;6195363;23;20020;-93
2022/05/18 16:24:37;;;;;;;11.07;6.25;;;21.30;99.90;;;;;;6195039;23;20016;-92
2022/05/18 16:27:07;;;;;;;13.57;6.63;;;21.30;99.90;;;;;;6195039;23;20453;-92
2022/05/18 16:29:36;;;;;;;10.88;6.45;;;21.30;99.90;;;;;;6194958;23;20020;-91
2022/05/18 16:32:02;;;;;;;10.35;5.50;;;21.30;99.90;;;;;;6245063;23;20020;-90
2022/05/18 16:34:28;;;;;;;;;;;21.30;99.90;;;;;;6195409;23;20015;-91
2022/05/18 16:36:54;;;;;;;8.38;5.10;;;21.20;99.90;;;;;;6219914;23;20245;-91
2022/05/18 16:39:20;;;;;;;10.48;6.00;;;21.20;99.90;;;;;;6245145;23;20012;-93
2022/05/18 16:41:47;;;;;;;11.65;6.15;;;21.20;99.90;;;;;;6219915;23;20024;-94
2022/05/18 16:44:26;;;;;;;10.50;5.78;;;21.20;99.90;;;;;;6194986;23;20070;-94
2022/05/18 16:46:54;;;;;;;10.57;5.82;;;21.10;99.90;;;;;;6195088;23;20023;-95
2022/05/18 16:49:24;;;;;;;11.32;5.25;;;21.10;99.90;;;;;;6219983;23;20042;-94
2022/05/18 16:51:51;;;;;;;10.15;5.45;;;21.10;99.90;;;;;;6220028;23;20023;-94
2022/05/18 16:54:17;;;;;;;10.35;5.22;;;21.20;99.90;;;;;;6246715;23;20012;-93
2022/05/18 16:56:43;;;;;;;13.20;5.65;;;21.10;99.90;;;;;;6194978;23;20434;-95
2022/05/18 16:59:09;;;;;;;9.65;5.10;;;21.10;99.90;;;;;;6194757;23;20023;-92
2022/05/18 17:01:38;;;;;;;;;;;21.10;99.90;;;;;;6195551;23;20023;-94
2022/05/18 17:04:04;;;;;;;9.52;4.88;;;21.10;99.90;;;;;;6194986;23;19915;-94
2022/05/18 17:06:30;;;;;;;7.20;4.70;;;21.00;99.90;;;;;;6219933;23;20016;-93
2022/05/18 17:08:57;;;;;;;10.18;5.18;;;21.00;99.90;;;;;;6219959;23;20038;-95
2022/05/18 17:11:41;;;;;;;9.63;5.15;;;20.90;99.90;;;;;;6194914;23;20023;-93
2022/05/18 17:14:17;;;;;;;8.55;4.63;;;20.90;99.90;;;;;;6219789;23;20023;-94
2022/05/18 17:16:52;;;;;;;7.65;4.47;;;20.90;99.90;;;;;;6219935;23;20011;-93
2022/05/18 17:19:19;;;;;;;9.30;5.13;;;20.90;99.90;;;;;;6245163;23;20012;-92
2022/05/18 17:21:44;;;;;;;7.50;3.90;;;20.90;99.90;;;;;;6219644;23;20072;-94
2022/05/18 17:24:11;;;;;;;7.80;4.60;;;20.90;99.90;;;;;;6195125;23;20054;-92
2022/05/18 17:26:41;;;;;;;7.38;3.95;;;20.80;99.90;;;;;;6195267;23;20012;-93
2022/05/18 17:29:28;;;;;;;7.88;4.05;;;20.80;99.90;;;;;;6194603;23;20445;-92
2022/05/18 17:31:54;;;;;;;;;;;20.80;99.90;;;;;;6194927;23;20016;-94
2022/05/18 17:34:21;;;;;;;9.20;3.58;;;20.80;99.90;;;;;;6196127;23;19922;-94
2022/05/18 17:36:55;;;;;;;7.15;3.85;;;20.80;99.90;;;;;;6194835;23;20008;-93
2022/05/18 17:39:27;;;;;;;7.00;3.72;;;20.80;99.90;;;;;;6194962;23;20056;-94
2022/05/18 17:41:52;;;;;;;9.80;4.13;;;20.70;99.90;;;;;;6219640;23;20016;-95
2022/05/18 17:44:19;;;;;;;7.55;4.10;;;20.70;99.90;;;;;;6189653;23;20087;-96
2022/05/18 17:46:45;;;;;;;7.72;3.63;;;20.70;99.90;;;;;;6216672;23;20076;-93
2022/05/18 17:49:31;;;;;;;7.85;3.70;;;20.70;99.90;;;;;;6189291;23;20121;-92
2022/05/18 17:52:01;;;;;;;9.75;4.47;;;20.70;99.90;;;;;;6189265;23;20016;-93
2022/05/18 17:54:27;;;;;;;6.15;3.80;;;20.60;99.90;;;;;;6189066;23;20085;-92
2022/05/18 17:57:28;;;;;;;9.48;4.10;;;20.60;99.90;;;;;;6189236;23;20035;-94
2022/05/18 17:59:57;;;;;;;7.03;4.00;;;20.50;99.90;;;;;;6187925;23;20013;-93
2022/05/18 18:02:31;;;;;;;8.13;4.13;;;20.50;99.90;;;;;;6189487;23;20019;-92
2022/05/18 18:04:57;;;;;;;7.85;3.80;;;20.50;99.90;;;;;;6188016;23;20044;-92
2022/05/18 18:07:27;;;;;;;7.05;4.05;;;20.40;99.90;;;;;;6188934;23;20354;-93
2022/05/18 18:09:52;;;;;;;7.40;4.10;;;20.40;99.90;;;;;;6188539;23;20058;-91
2022/05/18 18:22:45;;;;;;;9.75;4.50;;;20.20;99.90;;;;;;6187222;23;20032;-90
2022/05/18 18:25:20;;;;;;;8.18;4.75;;;20.20;99.90;;;;;;6161080;23;20025;-91
2022/05/18 18:27:49;;;;;;;8.25;4.35;;;20.20;99.90;;;;;;6135940;23;20021;-91
2022/05/18 18:30:16;;;;;;;7.82;3.97;;;20.10;99.90;;;;;;6136093;23;20104;-90
2022/05/18 18:32:42;;;;;;;8.13;4.70;;;20.10;99.90;;;;;;6136362;23;20119;-90
2022/05/18 18:35:09;;;;;;;7.72;4.10;;;20.10;99.90;;;;;;6136414;23;20101;-90
2022/05/18 18:37:34;;;;;;;8.32;4.40;;;20.00;99.90;;;;;;6160894;23;20016;-90
2022/05/18 18:40:01;;;;;;;7.93;4.10;;;20.00;99.90;;;;;;6160850;23;20525;-90
2022/05/18 18:42:29;;;;;;;6.22;3.63;;;19.90;99.90;;;;;;6160821;23;20021;-91
2022/05/18 18:44:58;;;;;;;7.25;3.38;;;19.90;99.90;;;;;;6160045;23;20465;-89
2022/05/18 18:47:25;;;;;;;6.68;3.97;;;19.90;99.90;;;;;;6158210;23;20021;-90
2022/05/18 18:49:52;;;;;;;6.47;3.78;;;19.80;99.90;;;;;;6134407;23;20013;-91
2022/05/18 18:55:08;;;;;;;6.85;3.55;;;19.80;99.90;;;;;;6160901;23;19922;-90
2022/05/18 18:57:42;;;;;;;6.38;3.35;;;19.80;99.90;;;;;;6136055;23;20017;-89
2022/05/18 19:00:14;;;;;;;7.68;4.22;;;19.80;99.90;;;;;;6161057;23;20024;-91
2022/05/18 19:02:41;;;;;;;7.47;4.20;;;19.70;99.90;;;;;;6160868;23;20024;-91
2022/05/18 19:05:09;;;;;;;8.77;4.18;;;19.70;99.90;;;;;;6161084;23;20032;-88
2022/05/18 19:07:35;;;;;;;6.93;3.58;;;19.60;99.90;;;;;;6160838;23;20013;-88
2022/05/18 19:10:07;;;;;;;7.22;3.90;;;19.60;99.90;;;;;;6136452;23;20085;-92
2022/05/18 19:12:39;;;;;;;7.13;4.07;;;19.50;99.90;;;;;;6136209;23;20095;-93
2022/05/18 19:15:11;;;;;;;6.65;3.95;;;19.50;99.90;;;;;;6161015;23;20017;-93
2022/05/18 19:17:38;;;;;;;8.55;4.07;;;19.40;99.90;;;;;;6160749;23;20024;-91
2022/05/18 19:20:04;;;;;;;;;;;19.40;99.90;;;;;;6161188;23;20096;-92
2022/05/18 19:22:32;;;;;;;7.95;4.30;;;19.40;99.90;;;;;;6119089;23;19924;-93
2022/05/18 19:25:03;;;;;;;7.50;4.18;;;19.40;99.90;;;;;;6131330;23;20072;-91
2022/05/18 19:27:28;;;;;;;7.00;4.00;;;19.40;99.90;;;;;;6106399;23;20014;-90
2022/05/18 19:29:54;;;;;;;7.88;4.20;;;19.30;99.90;;;;;;6130854;23;20055;-89
2022/05/18 19:32:20;;;;;;;6.82;4.22;;;19.20;99.90;;;;;;6105993;23;20028;-89
2022/05/18 19:34:46;;;;;;;9.65;4.68;;;19.20;99.90;;;;;;6129846;23;20032;-92
2022/05/18 19:37:12;;;;;;;6.97;4.32;;;19.10;99.90;;;;;;6106553;23;20014;-92
2022/05/18 19:39:38;;;;;;;8.07;4.20;;;19.10;99.90;;;;;;6106173;23;20044;-91
2022/05/18 19:42:06;;;;;;;8.75;4.80;;;19.00;99.90;;;;;;6129243;23;20059;-92
2022/05/18 19:44:36;;;;;;;8.23;4.57;;;19.00;99.90;;;;;;6106137;23;20044;-90
2022/05/18 19:47:02;;;;;;;7.57;4.65;;;18.90;99.90;;;;;;6130560;23;20355;-91
2022/05/18 19:49:28;;;;;;;7.50;4.07;;;18.80;99.90;;;;;;6106456;23;20320;-90
2022/05/18 19:51:53;;;;;;;9.02;4.85;;;18.80;99.90;;;;;;6106238;23;20526;-94
2022/05/18 19:54:22;;;;;;;8.23;4.50;;;18.80;99.90;;;;;;6130474;23;20029;-90
2022/05/18 19:56:48;;;;;;;9.18;4.75;;;18.70;99.90;;;;;;6106234;23;20079;-90
2022/05/18 19:59:15;;;;;;;11.18;5.32;;;18.70;99.90;;;;;;6106316;23;20440;-91
2022/05/18 20:01:43;;;;;;;9.65;4.70;;;18.60;99.90;;;;;;6106231;23;20024;-90
2022/05/18 20:04:09;;;;;;;9.30;4.45;;;18.50;99.90;;;;;;6130379;23;20018;-89
2022/05/18 20:06:37;;;;;;;9.27;4.85;;;18.40;99.90;;;;;;6130553;23;20028;-91
2022/05/18 20:09:04;;;;;;;9.55;5.15;;;18.40;99.90;;;;;;6130766;23;20057;-90
2022/05/18 20:11:30;;;;;;;10.10;5.80;;;18.30;99.90;;;;;;6106486;23;20022;-90
2022/05/18 20:13:56;;;;;;;9.57;5.90;;;18.20;99.90;;;;;;6130809;23;20025;-90
2022/05/18 20:16:22;;;;;;;10.52;6.05;;;18.20;99.90;;;;;;6130626;23;20068;-90
2022/05/18 20:18:49;;;;;;;9.32;5.10;;;18.20;99.90;;;;;;6106377;23;20347;-90
2022/05/18 20:21:15;;;;;;;9.55;5.80;;;18.10;99.90;;;;;;6131788;23;20024;-90
2022/05/18 20:23:42;;;;;;;7.95;5.13;;;18.10;99.90;;;;;;6160371;23;20017;-90
2022/05/18 20:26:33;;;;;;;11.27;5.60;;;18.00;99.90;;;;;;6159594;23;20020;-88
2022/05/18 20:29:03;;;;;;;10.38;5.53;;;18.00;99.90;;;;;;6135249;23;20019;-91
2022/05/18 20:31:29;;;;;;;11.10;6.10;;;17.90;99.90;;;;;;6186184;23;20096;-91
2022/05/18 20:33:55;;;;;;;10.10;5.50;;;17.90;99.90;;;;;;6134992;23;20079;-89
2022/05/18 20:36:21;;;;;;;9.43;5.50;;;17.80;99.90;;;;;;6135309;23;20021;-89
2022/05/18 20:38:47;;;;;;;11.02;6.10;;;17.80;99.90;;;;;;6135258;23;20045;-90
2022/05/18 20:41:13;;;;;;;14.63;6.82;;;17.80;99.90;;;;;;6184837;23;20066;-89